หน้าหลัก
METAR-TAF:

METAR-TAF

ท่าอากาศยาน :

ท่าอากาศยานนานาชาติจูอันดา

Gerbangkertosusila, อินโดนีเซีย

ละติจูด: 07-22-47S, ลองจิจูด: 112-47-13E, ความสูง: 3 ม.

การสังเกตสภาพอากาศปัจจุบัน

รายงานได้ทำขึ้นเมื่อ 32 นาทีที่แล้ว ณ เวลา 18:00 UTC
ลมสงบ
อุณหภูมิ 28°C
ความชื้น 79%
ความกดอากาศ
ทัศนวิสัย: 1010 ม.
มีเมฆน้อยที่ความสูง 2000 ฟุต

METAR: WARR 271800Z 00000KT 8000 FEW020 28/24 1010 NOSIG

เวลา: 01:32 (18:32 UTC)

การพยากรณ์

รายงานได้ทำขึ้นเมื่อ 1 ชั่วโมงและ 32 นาทีที่แล้ว ณ เวลา 17:00 UTC
การพยากรณ์มีผลตั้งแต่วันที่ 27 ณ เวลา 18 UTC จนถึงวันที่ 28 ณ เวลา 18 UTC
ลม 4 นอตจากตะวันตก
ทัศนวิสัย: 8000 ม.
มีเมฆน้อยที่ความสูง 2000 ฟุต
กำลังกลายเป็น
ตั้งแต่วันที่ 27 ณ เวลา 21 UTC จนถึงวันที่ 27 ณ เวลา 23 UTC
ทัศนวิสัย: 5000 ม.
เมฆหมอก
กำลังกลายเป็น
ตั้งแต่วันที่ 28 ณ เวลา 00 UTC จนถึงวันที่ 28 ณ เวลา 02 UTC
ลม 9 นอตจากตะวันออก
ทัศนวิสัย 10 กม. หรือมากกว่า

TAF: WARR 271700Z 2718/2818 26004KT 8000 FEW020 BECMG 2721/2723 5000 HZ BECMG 2800/2802 08009KT 9999 NSW

สังเกตการณ์สภาพอากาศและพยากรณ์อากาศของสนามบินมากกว่า 4000 แห่ง (รายงาน METAR และ TAF).

สถานีที่ดูได้จะแสดงไว้ด้วยจุดสีเหลืองและสีแดงบนแผนที่.

เลื่อนเมาส์ไปเหนือจุดเพื่อดูชื่อสถานี.

แล้วคลิกเพื่อดูสังเกตการณ์และการพยากรณ์สภาพอากาศ.

ในการเปลี่ยนแผนที่: คลิกที่ปุ่มสีเขียวที่มีกากบาทสีดำเพื่อซูมเข้า; ที่ปุ่มสีเขียวที่มีขีดเพื่อซูมออก; หรือที่ลูกศรสีเขียวเพื่อไปยังแผนที่ที่อยู่ติดกัน.


METAR-TAF: